Time;durP1;ratioP1;P1;durP2;ratioP2;P2;SDS_P1;SDS_P2;PMS_P1;PMS_P2;Temp;Humidity;BMP_temperature;BMP_pressure;BME280_temperature;BME280_humidity;BME280_pressure;Samples;Min_cycle;Max_cycle;Signal;HPM_P1;HPM_P2
2021/07/01 00:00:31;;;;;;;10.63;7.82;;;24.50;66.40;;;;;;5033753;28;20028;-63
2021/07/01 00:02:56;;;;;;;8.93;7.70;;;24.50;66.50;;;;;;5051542;28;20100;-63
2021/07/01 00:05:22;;;;;;;11.05;8.40;;;24.50;66.70;;;;;;5051045;28;20048;-63
2021/07/01 00:07:48;;;;;;;9.20;8.15;;;24.50;66.80;;;;;;5049661;28;20029;-63
2021/07/01 00:10:21;;;;;;;10.20;7.82;;;24.40;66.80;;;;;;5049194;28;20044;-63
2021/07/01 00:12:47;;;;;;;10.20;8.10;;;24.40;66.90;;;;;;5052251;28;21081;-63
2021/07/01 00:15:20;;;;;;;9.30;8.32;;;24.40;67.00;;;;;;5053274;28;20120;-63
2021/07/01 00:17:46;;;;;;;10.80;8.60;;;24.40;67.80;;;;;;5049010;28;20385;-63
2021/07/01 00:20:13;;;;;;;9.32;8.38;;;24.40;67.30;;;;;;5043617;28;20029;-63
2021/07/01 00:22:39;;;;;;;11.60;9.13;;;24.30;67.30;;;;;;5050650;28;20428;-63
2021/07/01 00:25:07;;;;;;;11.63;8.65;;;24.30;67.50;;;;;;5047784;28;20043;-63
2021/07/01 00:27:32;;;;;;;11.85;9.32;;;24.30;67.80;;;;;;5043820;28;20450;-63
2021/07/01 00:29:58;;;;;;;10.65;9.13;;;24.30;68.30;;;;;;5041511;28;20108;-63
2021/07/01 00:32:24;;;;;;;10.57;8.50;;;24.20;68.60;;;;;;5049517;28;20456;-63
2021/07/01 00:34:50;;;;;;;11.65;8.57;;;24.20;68.60;;;;;;5052567;28;20026;-63
2021/07/01 00:37:15;;;;;;;10.48;9.30;;;24.10;68.80;;;;;;5051474;28;20032;-63
2021/07/01 00:39:41;;;;;;;11.45;9.52;;;24.10;69.00;;;;;;5051151;28;20043;-63
2021/07/01 00:42:07;;;;;;;13.93;9.70;;;24.10;69.20;;;;;;5052592;28;20424;-63
2021/07/01 00:44:33;;;;;;;13.75;10.43;;;24.10;69.30;;;;;;5048543;28;20086;-63
2021/07/01 00:46:58;;;;;;;14.10;10.98;;;24.10;69.30;;;;;;5052544;28;20075;-63
2021/07/01 00:49:24;;;;;;;12.65;10.27;;;24.00;69.20;;;;;;5056201;28;20385;-63
2021/07/01 00:51:51;;;;;;;15.13;11.05;;;24.00;69.60;;;;;;5046310;28;20369;-63
2021/07/01 00:54:18;;;;;;;13.77;10.38;;;24.00;69.80;;;;;;5048552;28;20021;-63
2021/07/01 00:56:44;;;;;;;13.77;9.52;;;24.00;70.00;;;;;;5046805;28;20100;-63
2021/07/01 00:59:09;;;;;;;12.23;9.90;;;24.10;70.40;;;;;;5052403;28;20136;-63
2021/07/01 01:01:37;;;;;;;11.88;10.05;;;24.00;70.30;;;;;;5051002;28;20025;-63
2021/07/01 01:04:02;;;;;;;11.77;9.77;;;24.00;70.40;;;;;;5055751;28;20024;-63
2021/07/01 01:06:29;;;;;;;10.27;9.15;;;24.00;70.80;;;;;;5053673;28;20043;-63
2021/07/01 01:08:57;;;;;;;10.35;9.30;;;24.10;71.10;;;;;;5051551;28;20029;-63
2021/07/01 01:11:25;;;;;;;11.50;9.07;;;24.00;71.20;;;;;;5053258;28;20477;-63
2021/07/01 01:13:53;;;;;;;11.40;9.30;;;24.10;71.50;;;;;;5050602;28;20388;-63
2021/07/01 01:16:19;;;;;;;10.25;8.70;;;24.10;71.70;;;;;;5055510;28;20512;-63
2021/07/01 01:18:45;;;;;;;10.52;9.25;;;24.10;71.80;;;;;;5055732;28;20049;-63
2021/07/01 01:21:12;;;;;;;11.02;8.45;;;24.10;72.00;;;;;;5054193;28;20033;-63
2021/07/01 01:23:38;;;;;;;10.57;8.32;;;24.20;72.40;;;;;;5046274;28;20111;-63
2021/07/01 01:26:04;;;;;;;10.82;8.10;;;24.20;72.50;;;;;;5047406;28;20064;-63
2021/07/01 01:28:30;;;;;;;9.48;7.93;;;24.20;72.80;;;;;;5050543;28;20029;-63
2021/07/01 01:30:57;;;;;;;11.60;8.45;;;24.20;73.00;;;;;;5049764;28;20056;-63
2021/07/01 01:33:26;;;;;;;10.85;8.27;;;24.20;73.40;;;;;;5052145;28;20025;-63
2021/07/01 01:35:52;;;;;;;10.18;8.27;;;24.20;73.40;;;;;;5048434;28;20017;-63
2021/07/01 01:38:18;;;;;;;9.68;8.50;;;24.20;73.60;;;;;;5052500;28;20029;-63
2021/07/01 01:40:48;;;;;;;9.98;8.27;;;24.20;73.80;;;;;;5052805;28;20097;-63
2021/07/01 01:43:21;;;;;;;9.63;7.38;;;24.20;74.10;;;;;;5051536;28;20111;-63
2021/07/01 01:45:47;;;;;;;11.80;8.77;;;24.20;74.60;;;;;;5055778;28;20112;-63
2021/07/01 01:48:13;;;;;;;11.68;10.48;;;24.10;75.30;;;;;;5049874;28;20063;-63
2021/07/01 01:50:40;;;;;;;10.65;9.20;;;24.10;76.00;;;;;;5038819;28;20032;-63
2021/07/01 01:53:07;;;;;;;10.20;9.20;;;24.00;76.70;;;;;;5053165;28;20360;-63
2021/07/01 01:55:33;;;;;;;10.43;7.80;;;23.90;77.40;;;;;;5045539;28;20112;-63
2021/07/01 01:57:59;;;;;;;9.02;6.97;;;23.90;78.10;;;;;;5053384;28;20096;-63
2021/07/01 02:00:25;;;;;;;7.10;6.28;;;23.80;78.80;;;;;;5053386;28;20442;-63
2021/07/01 02:02:51;;;;;;;9.80;6.00;;;23.70;79.70;;;;;;5052378;28;20037;-63
2021/07/01 02:05:19;;;;;;;8.15;5.25;;;23.60;81.00;;;;;;5044559;28;20025;-63
2021/07/01 02:07:45;;;;;;;5.32;4.82;;;23.60;80.60;;;;;;5054527;28;20082;-63
2021/07/01 02:10:16;;;;;;;5.90;5.05;;;23.60;80.80;;;;;;5053832;28;20025;-63
2021/07/01 02:12:42;;;;;;;5.75;5.10;;;23.50;80.90;;;;;;5051372;28;20037;-63
2021/07/01 02:15:09;;;;;;;8.02;5.32;;;23.50;81.20;;;;;;5037396;28;20537;-63
2021/07/01 02:17:36;;;;;;;5.93;5.18;;;23.50;81.10;;;;;;5042379;28;20066;-63
2021/07/01 02:20:11;;;;;;;6.60;5.90;;;23.50;81.00;;;;;;5048820;28;20021;-63
2021/07/01 02:22:37;;;;;;;7.57;5.53;;;23.50;81.10;;;;;;5050448;28;20039;-63
2021/07/01 02:25:04;;;;;;;5.53;4.75;;;23.60;80.80;;;;;;5049923;28;20041;-63
2021/07/01 02:27:29;;;;;;;5.70;4.57;;;23.60;80.90;;;;;;5053938;28;20480;-63
2021/07/01 02:29:55;;;;;;;5.97;4.38;;;23.60;80.60;;;;;;5054776;28;20017;-63
2021/07/01 02:32:21;;;;;;;5.40;4.47;;;23.70;80.80;;;;;;5050744;28;20342;-63
2021/07/01 02:34:47;;;;;;;8.10;5.32;;;23.70;81.00;;;;;;5053324;28;20477;-63
2021/07/01 02:37:12;;;;;;;6.78;5.45;;;23.70;81.10;;;;;;5054832;28;20067;-63
2021/07/01 02:39:39;;;;;;;8.05;5.13;;;23.80;81.40;;;;;;5052030;28;20354;-63
2021/07/01 02:42:05;;;;;;;6.57;5.25;;;23.80;81.10;;;;;;5054442;28;20021;-63
2021/07/01 02:44:31;;;;;;;6.07;5.20;;;23.80;81.10;;;;;;5045779;28;20067;-63
2021/07/01 02:46:57;;;;;;;5.68;4.72;;;23.80;81.30;;;;;;5047801;28;20033;-63
2021/07/01 02:49:22;;;;;;;8.45;5.88;;;23.80;81.40;;;;;;5034596;28;20036;-63
2021/07/01 02:51:48;;;;;;;8.20;6.03;;;23.80;81.30;;;;;;5040051;28;20125;-63
2021/07/01 02:54:14;;;;;;;6.50;5.57;;;23.80;81.50;;;;;;5052663;28;20021;-63
2021/07/01 02:56:40;;;;;;;7.30;5.75;;;23.70;81.50;;;;;;5047990;28;20021;-63
2021/07/01 02:59:09;;;;;;;7.63;6.65;;;23.80;82.20;;;;;;5048536;28;20483;-63
2021/07/01 03:01:35;;;;;;;6.60;5.80;;;23.80;82.60;;;;;;5044601;28;20024;-63
2021/07/01 03:04:02;;;;;;;6.50;5.80;;;23.80;82.10;;;;;;5052619;28;20457;-63
2021/07/01 03:06:29;;;;;;;7.07;5.68;;;23.80;81.70;;;;;;5051674;28;20022;-63
2021/07/01 03:08:54;;;;;;;6.78;5.10;;;23.90;81.70;;;;;;5054212;28;20123;-63
2021/07/01 03:11:21;;;;;;;5.85;5.20;;;23.90;81.60;;;;;;5046914;28;20017;-63
2021/07/01 03:13:47;;;;;;;5.90;5.30;;;23.90;81.50;;;;;;5053454;28;20033;-63
2021/07/01 03:16:19;;;;;;;5.88;5.28;;;23.90;81.60;;;;;;5050520;28;20021;-63
2021/07/01 03:18:44;;;;;;;7.45;5.60;;;24.00;81.80;;;;;;5050897;28;20104;-63
2021/07/01 03:21:10;;;;;;;11.95;5.90;;;24.00;82.00;;;;;;5049447;28;20100;-63
2021/07/01 03:23:36;;;;;;;6.93;6.00;;;24.00;82.10;;;;;;5044323;28;20071;-63
2021/07/01 03:26:02;;;;;;;6.80;5.68;;;24.10;82.10;;;;;;5042720;28;20033;-63
2021/07/01 03:28:28;;;;;;;7.72;6.30;;;24.00;81.50;;;;;;5044698;28;20084;-63
2021/07/01 03:30:53;;;;;;;6.50;5.90;;;24.00;81.60;;;;;;5050071;28;20025;-63
2021/07/01 03:33:19;;;;;;;6.60;5.93;;;24.00;81.60;;;;;;5051375;28;20082;-63
2021/07/01 03:35:45;;;;;;;6.65;5.95;;;24.00;81.90;;;;;;5052208;28;20021;-63
2021/07/01 03:38:10;;;;;;;8.55;6.30;;;24.00;81.90;;;;;;5041443;28;20088;-63
2021/07/01 03:40:36;;;;;;;8.18;6.53;;;24.00;82.20;;;;;;5050728;28;20083;-63
2021/07/01 03:43:02;;;;;;;7.47;6.32;;;24.10;82.80;;;;;;5050250;28;20445;-63
2021/07/01 03:45:27;;;;;;;8.82;6.15;;;24.10;82.90;;;;;;5040328;28;20027;-63
2021/07/01 03:47:53;;;;;;;7.00;6.13;;;24.10;83.00;;;;;;5044583;28;20044;-63
2021/07/01 03:50:20;;;;;;;7.53;6.40;;;24.20;83.20;;;;;;5049414;28;20047;-63
2021/07/01 03:52:46;;;;;;;6.82;5.93;;;24.20;83.00;;;;;;5051242;28;20025;-64
2021/07/01 03:55:11;;;;;;;6.05;5.45;;;24.20;83.20;;;;;;5051190;28;20491;-64
2021/07/01 03:57:37;;;;;;;6.53;5.80;;;24.20;83.10;;;;;;5048290;28;20462;-64
2021/07/01 04:00:07;;;;;;;6.28;5.43;;;24.20;83.60;;;;;;5053012;28;20017;-64
2021/07/01 04:02:33;;;;;;;9.55;5.45;;;24.20;83.30;;;;;;5051637;28;20034;-64
2021/07/01 04:04:58;;;;;;;6.85;5.60;;;24.20;83.40;;;;;;5043691;28;20834;-64
2021/07/01 04:07:24;;;;;;;6.78;4.95;;;24.10;83.70;;;;;;5043778;28;20025;-64
2021/07/01 04:09:50;;;;;;;6.38;5.00;;;24.10;83.80;;;;;;5044965;28;20041;-64
2021/07/01 04:12:15;;;;;;;6.65;5.60;;;24.10;83.90;;;;;;5047617;28;20106;-64
2021/07/01 04:14:41;;;;;;;6.60;5.90;;;24.10;84.20;;;;;;5052950;28;20020;-64
2021/07/01 04:17:07;;;;;;;6.82;5.97;;;24.10;84.20;;;;;;5049765;28;20032;-64
2021/07/01 04:19:33;;;;;;;7.38;5.80;;;24.10;84.50;;;;;;5052873;28;20471;-64
2021/07/01 04:21:59;;;;;;;6.90;6.13;;;24.10;84.30;;;;;;5049355;28;20111;-64
2021/07/01 04:24:25;;;;;;;6.03;5.38;;;24.10;84.50;;;;;;5042910;28;20047;-64
2021/07/01 04:26:50;;;;;;;6.63;5.38;;;24.10;84.60;;;;;;5051578;28;20443;-64
2021/07/01 04:29:16;;;;;;;6.72;6.00;;;24.10;84.70;;;;;;5053044;28;20051;-64
2021/07/01 04:31:42;;;;;;;8.02;6.30;;;24.10;85.10;;;;;;5049246;28;20033;-64
2021/07/01 04:34:08;;;;;;;7.18;6.43;;;24.10;84.90;;;;;;5052746;28;20025;-64
2021/07/01 04:36:34;;;;;;;7.88;7.07;;;24.10;84.80;;;;;;5050398;28;20365;-64
2021/07/01 04:39:00;;;;;;;8.73;7.68;;;24.10;85.20;;;;;;5052113;28;20511;-64
2021/07/01 04:41:26;;;;;;;9.00;8.10;;;24.20;85.50;;;;;;5049592;28;20017;-64
2021/07/01 04:43:52;;;;;;;9.35;7.43;;;24.20;85.40;;;;;;5052612;28;20108;-64
2021/07/01 04:46:17;;;;;;;11.77;8.48;;;24.20;85.50;;;;;;5041874;28;20087;-64
2021/07/01 04:48:44;;;;;;;8.95;8.13;;;24.20;85.50;;;;;;5032948;28;20036;-64
2021/07/01 04:51:10;;;;;;;10.20;9.07;;;24.30;85.30;;;;;;5032997;28;20045;-64
2021/07/01 04:53:36;;;;;;;11.18;8.90;;;24.30;85.70;;;;;;5040933;28;20484;-64
2021/07/01 04:56:02;;;;;;;10.57;9.50;;;24.40;85.90;;;;;;5046720;28;20108;-64
2021/07/01 04:58:27;;;;;;;10.43;8.77;;;24.50;85.90;;;;;;5051341;28;20017;-64
2021/07/01 05:00:53;;;;;;;9.98;8.95;;;24.60;85.80;;;;;;5047701;28;20444;-64
2021/07/01 05:03:18;;;;;;;10.65;9.07;;;24.70;85.40;;;;;;5047008;28;20151;-64
2021/07/01 05:05:44;;;;;;;10.68;9.68;;;24.80;85.10;;;;;;5050817;28;20033;-64
2021/07/01 05:08:10;;;;;;;11.00;8.57;;;24.90;85.00;;;;;;5047217;28;20033;-64
2021/07/01 05:10:36;;;;;;;9.38;8.48;;;25.00;84.30;;;;;;5050498;28;20031;-64
2021/07/01 05:13:02;;;;;;;9.38;8.48;;;25.10;84.10;;;;;;5047209;28;20065;-64
2021/07/01 05:15:27;;;;;;;9.10;8.13;;;25.20;83.80;;;;;;5048311;28;20497;-64
2021/07/01 05:17:53;;;;;;;9.75;8.73;;;25.20;84.00;;;;;;5037850;28;20025;-64
2021/07/01 05:20:19;;;;;;;9.60;8.70;;;25.30;83.40;;;;;;5051548;28;20021;-64
2021/07/01 05:22:44;;;;;;;10.93;9.80;;;25.30;83.00;;;;;;5048605;28;20061;-64
2021/07/01 05:25:10;;;;;;;10.55;9.55;;;25.30;83.00;;;;;;5040468;28;20048;-64
2021/07/01 05:27:36;;;;;;;10.88;9.77;;;25.30;82.90;;;;;;5048304;28;20047;-64
2021/07/01 05:30:03;;;;;;;11.40;10.30;;;25.30;82.80;;;;;;5047916;28;20556;-64
2021/07/01 05:32:29;;;;;;;11.32;10.23;;;25.30;82.90;;;;;;5044352;28;20028;-64
2021/07/01 05:34:54;;;;;;;11.68;10.52;;;25.30;83.00;;;;;;5048512;28;20021;-64
2021/07/01 05:37:20;;;;;;;11.43;10.30;;;25.30;82.70;;;;;;5045380;28;20087;-65
2021/07/01 05:39:46;;;;;;;12.93;11.25;;;25.30;83.10;;;;;;5050325;28;20031;-64
2021/07/01 05:42:12;;;;;;;15.93;12.48;;;25.30;83.30;;;;;;5053063;28;20028;-64
2021/07/01 05:44:37;;;;;;;15.00;12.65;;;25.30;83.30;;;;;;5052888;28;20418;-64
2021/07/01 05:47:04;;;;;;;18.38;13.73;;;25.30;83.70;;;;;;5046198;28;20032;-64
2021/07/01 05:49:30;;;;;;;14.50;12.48;;;25.30;84.30;;;;;;5038425;28;20469;-64
2021/07/01 05:52:00;;;;;;;13.35;11.80;;;25.30;83.80;;;;;;5047247;28;20037;-64
2021/07/01 05:54:32;;;;;;;;;;;25.30;83.40;;;;;;5043446;28;20068;-64
2021/07/01 05:56:58;;;;;;;11.38;10.18;;;25.30;82.90;;;;;;5046723;28;19915;-64
2021/07/01 05:59:24;;;;;;;13.82;12.43;;;25.30;83.30;;;;;;5038676;28;20029;-64
2021/07/01 06:01:51;;;;;;;14.23;12.73;;;25.30;83.00;;;;;;5041370;28;20036;-64
2021/07/01 06:04:18;;;;;;;13.93;12.32;;;25.30;83.20;;;;;;5036421;28;20025;-64
2021/07/01 06:06:54;;;;;;;15.35;12.80;;;25.30;83.00;;;;;;5037807;28;20076;-64
2021/07/01 06:09:24;;;;;;;14.23;12.40;;;25.30;83.00;;;;;;5039092;28;20037;-64
2021/07/01 06:11:58;;;;;;;16.35;13.25;;;25.30;83.10;;;;;;5031657;28;20124;-62
2021/07/01 06:14:24;;;;;;;15.73;14.20;;;25.30;83.20;;;;;;5039660;28;20036;-61
2021/07/01 06:16:55;;;;;;;15.70;14.10;;;25.30;83.40;;;;;;5038265;28;20041;-63
2021/07/01 06:19:22;;;;;;;16.92;13.45;;;25.30;83.70;;;;;;5041334;28;20035;-62
2021/07/01 06:21:49;;;;;;;15.80;13.05;;;25.20;84.50;;;;;;5039593;28;20033;-62
2021/07/01 06:24:16;;;;;;;14.65;12.75;;;25.30;83.90;;;;;;5039014;28;20552;-62
2021/07/01 06:26:44;;;;;;;15.63;13.10;;;25.20;84.00;;;;;;5036764;28;20055;-62
2021/07/01 06:29:11;;;;;;;15.27;13.20;;;25.20;84.20;;;;;;5039362;28;20040;-62
2021/07/01 06:31:38;;;;;;;15.65;14.02;;;25.20;84.50;;;;;;5037318;28;20029;-60
2021/07/01 06:34:04;;;;;;;15.95;14.25;;;25.20;84.60;;;;;;5038770;28;20374;-64
2021/07/01 06:36:37;;;;;;;14.65;13.25;;;25.20;85.30;;;;;;5032457;28;20028;-62
2021/07/01 06:39:05;;;;;;;15.80;14.18;;;25.20;84.80;;;;;;5040304;28;20017;-62
2021/07/01 06:41:32;;;;;;;16.55;14.85;;;25.20;85.10;;;;;;5032627;28;20029;-62
2021/07/01 06:43:58;;;;;;;15.02;13.52;;;25.20;85.20;;;;;;5035361;28;20064;-63
2021/07/01 06:46:30;;;;;;;16.23;14.52;;;25.20;85.40;;;;;;5040396;28;20063;-63
2021/07/01 06:48:56;;;;;;;15.77;14.18;;;25.20;85.10;;;;;;5033624;28;20037;-63
2021/07/01 06:51:22;;;;;;;16.77;14.15;;;25.20;85.30;;;;;;5037211;28;20508;-62
2021/07/01 06:53:48;;;;;;;15.98;14.30;;;25.20;85.30;;;;;;5037671;28;20037;-62
2021/07/01 06:56:14;;;;;;;15.95;14.23;;;25.20;85.30;;;;;;5027357;28;20126;-62
2021/07/01 06:58:41;;;;;;;16.38;14.85;;;25.20;85.60;;;;;;5024274;28;20116;-62
2021/07/01 07:01:08;;;;;;;16.08;14.32;;;25.20;85.50;;;;;;5036585;28;20029;-62
2021/07/01 07:03:34;;;;;;;15.57;13.98;;;25.20;85.60;;;;;;5034789;28;20512;-59
2021/07/01 07:06:01;;;;;;;15.60;14.10;;;25.20;85.50;;;;;;5027262;28;20037;-62
2021/07/01 07:08:28;;;;;;;15.32;13.85;;;25.20;85.30;;;;;;5030732;28;20033;-62
2021/07/01 07:10:54;;;;;;;15.57;13.82;;;25.20;85.40;;;;;;5033632;28;20020;-61
2021/07/01 07:13:24;;;;;;;15.38;13.88;;;25.20;85.00;;;;;;5031533;28;20078;-61
2021/07/01 07:15:52;;;;;;;15.00;12.52;;;25.20;85.00;;;;;;5032576;28;20037;-62
2021/07/01 07:18:24;;;;;;;15.27;13.68;;;25.30;84.90;;;;;;5031852;28;21391;-63
2021/07/01 07:21:03;;;;;;;18.17;14.60;;;25.30;84.80;;;;;;5035224;28;20032;-62
2021/07/01 07:23:39;;;;;;;15.52;14.00;;;25.40;84.70;;;;;;5033160;28;20041;-62
2021/07/01 07:26:15;;;;;;;15.48;13.85;;;25.40;84.40;;;;;;5030766;28;20115;-62
2021/07/01 07:28:49;;;;;;;16.05;13.93;;;25.40;84.50;;;;;;5034616;28;20028;-61
2021/07/01 07:31:28;;;;;;;15.38;13.43;;;25.50;83.90;;;;;;5032259;28;20029;-62
2021/07/01 07:34:04;;;;;;;16.40;13.77;;;25.60;84.00;;;;;;5029637;28;20127;-62
2021/07/01 07:36:30;;;;;;;15.13;13.52;;;25.70;84.00;;;;;;5028257;28;20068;-62
2021/07/01 07:38:56;;;;;;;14.90;13.30;;;25.70;84.10;;;;;;5026278;28;20473;-62
2021/07/01 07:41:22;;;;;;;16.95;14.55;;;25.80;84.00;;;;;;5028070;28;20033;-62
2021/07/01 07:43:50;;;;;;;14.85;13.45;;;25.90;83.50;;;;;;5030418;28;20025;-62
2021/07/01 07:46:20;;;;;;;16.60;14.07;;;26.00;83.20;;;;;;5026215;28;20044;-63
2021/07/01 07:48:46;;;;;;;15.55;14.05;;;26.00;83.10;;;;;;5018438;28;20040;-63
2021/07/01 07:51:16;;;;;;;15.48;13.88;;;26.20;83.60;;;;;;5024176;28;20687;-59
2021/07/01 07:53:45;;;;;;;15.20;13.63;;;26.30;83.30;;;;;;5029854;28;23036;-62
2021/07/01 07:56:12;;;;;;;15.38;13.55;;;26.40;83.00;;;;;;5029106;28;20481;-63
2021/07/01 07:58:49;;;;;;;14.85;13.35;;;26.50;82.70;;;;;;5028690;28;20027;-64
2021/07/01 08:01:15;;;;;;;15.45;13.82;;;26.60;82.00;;;;;;5026876;28;20067;-62
2021/07/01 08:03:42;;;;;;;16.88;15.15;;;26.70;81.40;;;;;;5025125;28;20037;-63
2021/07/01 08:06:09;;;;;;;16.00;14.43;;;26.70;80.80;;;;;;5022772;28;20040;-64
2021/07/01 08:08:37;;;;;;;15.68;14.07;;;26.70;80.50;;;;;;5018195;28;20171;-63
2021/07/01 08:11:05;;;;;;;16.15;14.48;;;26.70;80.30;;;;;;5024424;28;20025;-61
2021/07/01 08:13:33;;;;;;;17.15;15.38;;;26.70;80.30;;;;;;5029401;28;20103;-63
2021/07/01 08:15:59;;;;;;;17.45;15.40;;;26.80;80.40;;;;;;5024117;28;20041;-63
2021/07/01 08:18:39;;;;;;;17.15;15.43;;;26.80;80.20;;;;;;5028270;28;20049;-64
2021/07/01 08:21:10;;;;;;;17.73;15.77;;;26.80;80.10;;;;;;5020760;28;20021;-63
2021/07/01 08:23:36;;;;;;;16.58;14.88;;;26.80;80.00;;;;;;5019475;28;20076;-63
2021/07/01 08:26:03;;;;;;;15.70;14.02;;;26.90;79.60;;;;;;5021525;28;20040;-64
2021/07/01 08:28:30;;;;;;;16.75;14.85;;;26.90;78.90;;;;;;5026816;28;20039;-63
2021/07/01 08:31:15;;;;;;;17.77;15.98;;;27.00;78.30;;;;;;5020385;28;20041;-59
2021/07/01 08:33:43;;;;;;;17.02;15.35;;;27.10;78.30;;;;;;5022102;28;20022;-62
2021/07/01 08:36:14;;;;;;;16.27;14.50;;;27.10;78.70;;;;;;5024541;28;20881;-61
2021/07/01 08:38:41;;;;;;;;;;;27.10;78.30;;;;;;5026598;28;20032;-61
2021/07/01 08:41:33;;;;;;;16.58;14.85;;;27.10;78.40;;;;;;5022702;28;19916;-61
2021/07/01 08:44:08;;;;;;;16.95;15.30;;;27.10;78.00;;;;;;5019269;28;20041;-62
2021/07/01 08:47:04;;;;;;;18.52;16.60;;;27.20;78.20;;;;;;5026372;28;20032;-60
2021/07/01 08:49:48;;;;;;;19.13;17.10;;;27.20;77.50;;;;;;5030817;28;20144;-65
2021/07/01 08:52:19;;;;;;;19.48;16.52;;;27.30;77.30;;;;;;5027666;28;20079;-64
2021/07/01 08:54:54;;;;;;;21.42;17.35;;;27.40;77.30;;;;;;5028027;28;20048;-62
2021/07/01 08:57:27;;;;;;;26.02;18.42;;;27.50;77.60;;;;;;5030118;28;20077;-62
2021/07/01 09:00:09;;;;;;;22.63;18.98;;;27.60;76.30;;;;;;5026325;28;20380;-61
2021/07/01 09:02:40;;;;;;;24.05;18.55;;;27.70;76.10;;;;;;5029222;28;21091;-62
2021/07/01 09:05:10;;;;;;;23.20;19.40;;;27.80;76.00;;;;;;5032334;28;20036;-62
2021/07/01 09:07:37;;;;;;;22.75;20.35;;;27.80;75.60;;;;;;5031772;28;20120;-61
2021/07/01 09:10:09;;;;;;;22.83;20.08;;;27.90;75.00;;;;;;5031125;28;20713;-61
2021/07/01 09:12:41;;;;;;;24.83;22.20;;;28.00;74.90;;;;;;5031223;28;20101;-61
2021/07/01 09:15:09;;;;;;;22.38;20.05;;;28.10;74.40;;;;;;5033508;28;20067;-61
2021/07/01 09:17:36;;;;;;;23.20;20.60;;;28.10;73.70;;;;;;5035937;28;20041;-60
2021/07/01 09:20:11;;;;;;;23.63;20.52;;;28.20;73.60;;;;;;5032956;28;20460;-60
2021/07/01 09:22:36;;;;;;;21.92;19.73;;;28.20;73.80;;;;;;5030686;28;20041;-60
2021/07/01 09:25:03;;;;;;;21.83;19.30;;;28.20;73.40;;;;;;5036202;28;20054;-59
2021/07/01 09:27:31;;;;;;;20.83;18.52;;;28.30;73.50;;;;;;5038575;28;20026;-61
2021/07/01 09:29:58;;;;;;;21.17;18.90;;;28.30;73.70;;;;;;5038411;28;20068;-61
2021/07/01 09:32:27;;;;;;;23.20;19.55;;;28.40;73.60;;;;;;5033341;28;20029;-62
2021/07/01 09:34:53;;;;;;;22.92;18.52;;;28.40;73.00;;;;;;5044187;28;20029;-61
2021/07/01 09:37:21;;;;;;;22.13;19.08;;;28.40;72.40;;;;;;5034777;28;20051;-60
2021/07/01 09:39:49;;;;;;;21.30;18.77;;;28.50;72.70;;;;;;5032138;28;20126;-61
2021/07/01 09:42:14;;;;;;;20.20;18.15;;;28.50;72.80;;;;;;5035755;28;20116;-61
2021/07/01 09:44:41;;;;;;;21.92;18.30;;;28.50;72.70;;;;;;5028038;28;20025;-63
2021/07/01 09:47:10;;;;;;;21.98;18.60;;;28.40;72.50;;;;;;5037348;28;20078;-63
2021/07/01 09:49:41;;;;;;;19.58;17.52;;;28.40;72.50;;;;;;5032514;28;20112;-62
2021/07/01 09:52:10;;;;;;;19.42;17.52;;;28.30;72.90;;;;;;5028224;28;20043;-62
2021/07/01 09:54:38;;;;;;;21.30;17.30;;;28.30;73.30;;;;;;5037419;28;20080;-63
2021/07/01 09:57:08;;;;;;;20.98;18.08;;;28.30;73.30;;;;;;5034097;28;20029;-61
2021/07/01 09:59:43;;;;;;;19.88;17.80;;;28.20;73.40;;;;;;5029476;28;20048;-61
2021/07/01 10:02:28;;;;;;;21.83;17.13;;;28.10;73.80;;;;;;5025501;28;20033;-60
2021/07/01 10:04:53;;;;;;;19.02;17.00;;;28.00;73.60;;;;;;5029463;28;20031;-61
2021/07/01 10:07:21;;;;;;;18.30;16.60;;;27.90;73.60;;;;;;5026268;28;20473;-61
2021/07/01 10:09:55;;;;;;;18.83;16.92;;;27.80;74.10;;;;;;5033114;28;20134;-61
2021/07/01 10:12:26;;;;;;;18.42;16.48;;;27.70;74.30;;;;;;5027956;28;20040;-60
2021/07/01 10:14:55;;;;;;;18.85;17.05;;;27.70;74.80;;;;;;5021613;28;20029;-60
2021/07/01 10:17:22;;;;;;;18.98;16.98;;;27.60;74.90;;;;;;5032370;28;20039;-62
2021/07/01 10:19:50;;;;;;;19.20;17.13;;;27.60;75.20;;;;;;5037580;28;20057;-64
2021/07/01 10:22:18;;;;;;;19.52;17.52;;;27.50;75.40;;;;;;5034043;28;20583;-60
2021/07/01 10:24:57;;;;;;;18.67;16.73;;;27.50;75.50;;;;;;5032990;28;20130;-61
2021/07/01 10:27:39;;;;;;;19.15;17.17;;;27.40;75.10;;;;;;5035182;28;20032;-61
2021/07/01 10:30:16;;;;;;;18.65;16.67;;;27.40;75.20;;;;;;5029418;28;20051;-61
2021/07/01 10:32:47;;;;;;;18.42;16.63;;;27.30;75.40;;;;;;5035131;28;20580;-61
2021/07/01 10:35:29;;;;;;;17.98;16.25;;;27.30;75.70;;;;;;5032458;28;20025;-60
2021/07/01 10:38:04;;;;;;;17.63;15.93;;;27.20;75.60;;;;;;5032436;28;20086;-60
2021/07/01 10:40:32;;;;;;;15.73;14.13;;;27.20;75.80;;;;;;5036133;28;20026;-60
2021/07/01 10:42:58;;;;;;;17.35;15.65;;;27.20;76.30;;;;;;5028293;28;20030;-61
2021/07/01 10:45:25;;;;;;;19.65;15.38;;;27.20;76.20;;;;;;5027645;28;20090;-61
2021/07/01 10:47:51;;;;;;;16.65;14.65;;;27.20;76.50;;;;;;5019730;28;20788;-63
2021/07/01 10:50:23;;;;;;;17.48;15.70;;;27.20;76.40;;;;;;5029938;28;20040;-62
2021/07/01 10:52:49;;;;;;;18.77;16.95;;;27.20;76.70;;;;;;5032185;28;20025;-62
2021/07/01 10:55:16;;;;;;;16.40;14.73;;;27.10;76.80;;;;;;5033091;28;20082;-63
2021/07/01 10:58:00;;;;;;;17.73;16.02;;;27.20;77.20;;;;;;5031298;28;20055;-63
2021/07/01 11:00:43;;;;;;;20.73;16.77;;;27.20;76.90;;;;;;5027981;28;20602;-63
2021/07/01 11:03:12;;;;;;;17.92;15.65;;;27.10;77.10;;;;;;5026287;28;20021;-62
2021/07/01 11:05:38;;;;;;;18.17;15.90;;;27.10;77.50;;;;;;5028848;28;20039;-62
2021/07/01 11:08:04;;;;;;;19.58;17.58;;;27.10;77.50;;;;;;5030125;28;20380;-62
2021/07/01 11:10:35;;;;;;;17.77;16.02;;;27.10;78.00;;;;;;5027006;28;21150;-62
2021/07/01 11:13:09;;;;;;;18.25;16.50;;;27.00;77.70;;;;;;5034738;28;20039;-60
2021/07/01 11:16:04;;;;;;;17.70;14.68;;;27.00;78.10;;;;;;5033445;28;20033;-64
2021/07/01 11:18:37;;;;;;;16.52;14.75;;;27.00;77.80;;;;;;5026416;28;20083;-63
2021/07/01 11:21:09;;;;;;;17.05;14.07;;;27.00;77.90;;;;;;5026565;28;20372;-61
2021/07/01 11:23:36;;;;;;;16.83;15.00;;;26.90;78.00;;;;;;5026741;28;20057;-63
2021/07/01 11:26:02;;;;;;;16.88;15.18;;;26.90;78.40;;;;;;5027282;28;20075;-63
2021/07/01 11:28:30;;;;;;;16.83;14.82;;;26.80;78.50;;;;;;5029696;28;20501;-63
2021/07/01 11:31:02;;;;;;;17.33;15.55;;;26.80;78.60;;;;;;5029621;28;20056;-63
2021/07/01 11:33:30;;;;;;;17.05;15.25;;;26.80;78.90;;;;;;5035090;28;20183;-63
2021/07/01 11:36:13;;;;;;;15.23;13.82;;;26.80;79.20;;;;;;5033105;28;20365;-63
2021/07/01 11:38:40;;;;;;;17.05;15.18;;;26.80;78.90;;;;;;5030704;28;20036;-63
2021/07/01 11:41:06;;;;;;;17.98;15.35;;;26.80;79.20;;;;;;5030510;28;20033;-64
2021/07/01 11:43:36;;;;;;;15.77;14.25;;;26.80;79.30;;;;;;5036043;28;20513;-63
2021/07/01 11:46:03;;;;;;;16.47;14.57;;;26.80;79.80;;;;;;5034706;28;20036;-63
2021/07/01 11:48:30;;;;;;;16.48;14.77;;;26.80;80.10;;;;;;5037267;28;20270;-65
2021/07/01 11:50:58;;;;;;;15.38;13.82;;;26.80;80.00;;;;;;5034884;28;20025;-65
2021/07/01 11:53:25;;;;;;;15.93;14.32;;;26.80;80.20;;;;;;5032939;28;20036;-64
2021/07/01 11:55:57;;;;;;;15.38;13.45;;;26.80;80.30;;;;;;5034297;28;20037;-63
2021/07/01 11:58:23;;;;;;;15.63;14.00;;;26.80;80.30;;;;;;5029960;28;20032;-63
2021/07/01 12:00:49;;;;;;;15.68;13.65;;;26.80;80.40;;;;;;5032636;28;20056;-64
2021/07/01 12:03:14;;;;;;;15.45;13.68;;;26.80;80.40;;;;;;5032856;28;20128;-64
2021/07/01 12:05:42;;;;;;;15.23;13.70;;;26.80;80.50;;;;;;5032157;28;20033;-64
2021/07/01 12:08:08;;;;;;;15.32;13.77;;;26.80;80.60;;;;;;5031572;28;20028;-65
2021/07/01 12:10:34;;;;;;;15.63;14.02;;;26.80;80.70;;;;;;5027625;28;20654;-65
2021/07/01 12:13:00;;;;;;;14.88;13.38;;;26.80;80.60;;;;;;5029911;28;20039;-66
2021/07/01 12:15:27;;;;;;;15.30;13.80;;;26.80;80.70;;;;;;5035254;28;20029;-66
2021/07/01 12:18:08;;;;;;;14.65;13.25;;;26.80;80.70;;;;;;5038843;28;20036;-65
2021/07/01 12:20:50;;;;;;;14.73;13.23;;;26.80;80.60;;;;;;5035620;28;20025;-64
2021/07/01 12:23:17;;;;;;;15.60;13.43;;;26.70;80.90;;;;;;5031820;28;20119;-65
2021/07/01 12:25:44;;;;;;;14.02;12.52;;;26.70;80.90;;;;;;5032380;28;20052;-64
2021/07/01 12:28:25;;;;;;;14.57;12.60;;;26.70;81.20;;;;;;5030336;28;20401;-64
2021/07/01 12:31:05;;;;;;;14.57;12.00;;;26.70;81.40;;;;;;5031739;28;20032;-64
2021/07/01 12:33:35;;;;;;;14.48;12.98;;;26.80;81.50;;;;;;5033112;28;20048;-65
2021/07/01 12:36:11;;;;;;;17.92;14.05;;;26.80;81.80;;;;;;5038654;28;20030;-64
2021/07/01 12:38:38;;;;;;;16.15;14.48;;;26.80;81.60;;;;;;5032351;28;20025;-64